This is the latest recevied weather packets stored in our database for station/object EA1FBN. If no packets are shown the sender has not sent any weather packets the latest 10 day(s).
| Time | Temp. | Humidity | Pressure | Rain* | Wind** | Luminosity | Snow |
|---|---|---|---|---|---|---|---|
| 1787586337 | 23.89° C | 49% | 1008.6 hPa | 0 mm | - | - | - |
| 1787586037 | 23.89° C | 50% | 1008.6 hPa | 0 mm | - | - | - |
| 1787585437 | 23.89° C | 50% | 1008.6 hPa | 0 mm | - | - | - |
| 1787585137 | 23.89° C | 51% | 1008.7 hPa | 0 mm | - | - | - |
| 1787584537 | 23.33° C | 50% | 1008.9 hPa | 0 mm | - | - | - |
| 1787584237 | 23.33° C | 50% | 1009 hPa | 0 mm | - | - | - |
| 1787583637 | 23.33° C | 51% | 1009.1 hPa | 0 mm | - | - | - |
| 1787583337 | 23.33° C | 52% | 1009.1 hPa | 0 mm | - | - | - |
| 1787582737 | 23.89° C | 51% | 1009.1 hPa | 0 mm | - | - | - |
| 1787582437 | 23.33° C | 50% | 1009.2 hPa | 0 mm | - | - | - |
| 1787581837 | 23.33° C | 51% | 1009.3 hPa | 0 mm | - | - | - |
| 1787581537 | 23.33° C | 50% | 1009.3 hPa | 0 mm | - | - | - |
| 1787580937 | 23.33° C | 53% | 1009.3 hPa | 0 mm | - | - | - |
| 1787580637 | 22.78° C | 56% | 1009.3 hPa | 0 mm | - | - | - |
| 1787580037 | 22.22° C | 63% | 1009.5 hPa | 0 mm | - | - | - |
| 1787579737 | 21.67° C | 65% | 1009.6 hPa | 0 mm | - | - | - |
| 1787579137 | 20.56° C | 69% | 1009.8 hPa | 0 mm | - | - | - |
| 1787578837 | 20.56° C | 71% | 1009.8 hPa | 0 mm | - | - | - |
| 1787578237 | 22.22° C | 61% | 1009.8 hPa | 0 mm | - | - | - |
| 1787577937 | 22.78° C | 54% | 1009.6 hPa | 0 mm | - | - | - |
| 1787577337 | 22.22° C | 60% | 1009.5 hPa | 0 mm | - | - | - |
| 1787577037 | 22.22° C | 59% | 1009.5 hPa | 0 mm | - | - | - |
| 1787576437 | 21.67° C | 64% | 1009.7 hPa | 0 mm | - | - | - |
| 1787576137 | 21.11° C | 67% | 1009.7 hPa | 0 mm | - | - | - |
| 1787575537 | 20° C | 70% | 1009.9 hPa | 0 mm | - | - | - |
* Rain latest hour (hover to see other rain measurements)
** Current wind speed in m/s (hover to see current wind gust speed)